Tordesillas, Spain
Current Conditions -  °F | °C
As of 2:00 PM on Wednesday 26 Nov 2014 (Local Time) from LEVD Reporting Station
Scattered Clouds Scattered Clouds  
Wind Chill: 10°   Ceiling: Unl
Heat Index: 10°   Visibility: 6mi
Dew Point:   Wind: 3mph
Humidity: 82%   Direction: 100°E
Pressure: 29.85"   Gusts: NA
Location:  41.5°N, 5°W
Report Text: LEVD 261300Z 10003KT 050V160 9999 SCT016 SCT028 10/07 Q1011
Loading
Personal Weather Stations






























Interactive Weather Map New forecast layout! Learn more

10-Day Weather Forecast

Advertisements
Track Severe Weather on mobile